createdAt,value
2023-07-25T00:00:44.814Z,1.45
2023-07-25T00:06:05.993Z,2.50
2023-07-25T00:11:16.558Z,2.73
2023-07-25T00:16:24.596Z,2.40
2023-07-25T00:21:30.412Z,2.30
2023-07-25T00:26:35.990Z,2.13
2023-07-25T00:31:44.094Z,2.00
2023-07-25T00:36:49.650Z,1.90
2023-07-25T00:41:55.068Z,1.75
2023-07-25T00:47:03.165Z,1.47
2023-07-25T00:52:09.337Z,1.50
2023-07-25T00:57:14.790Z,1.70
2023-07-25T01:02:23.080Z,1.80
2023-07-25T01:07:29.006Z,1.48
2023-07-25T01:12:34.425Z,2.20
2023-07-25T01:17:42.958Z,1.60
2023-07-25T01:22:49.442Z,1.40
2023-07-25T01:27:57.388Z,1.10
2023-07-25T01:33:03.186Z,1.92
2023-07-25T01:38:08.866Z,2.00
2023-07-25T01:43:16.957Z,1.67
2023-07-25T01:48:22.345Z,2.15
2023-07-25T01:53:27.801Z,1.60
2023-07-25T01:58:35.789Z,1.70
2023-07-25T02:03:41.181Z,2.50
2023-07-25T02:08:46.908Z,1.90
2023-07-25T02:13:54.406Z,1.83
2023-07-25T02:19:00.312Z,1.70
2023-07-25T02:24:07.122Z,1.90
2023-07-25T02:29:15.111Z,1.50
2023-07-25T02:34:23.281Z,1.70
2023-07-25T02:39:29.049Z,1.52
2023-07-25T02:44:37.390Z,1.33
2023-07-25T02:49:42.806Z,1.38
2023-07-25T02:54:48.412Z,1.80
2023-07-25T02:59:56.571Z,1.60
2023-07-25T03:05:02.596Z,1.57
2023-07-25T03:10:09.533Z,1.58
2023-07-25T03:15:17.468Z,1.50
2023-07-25T03:20:22.802Z,1.60
2023-07-25T03:25:28.210Z,2.00
2023-07-25T03:30:36.205Z,1.52
2023-07-25T03:35:42.775Z,1.87
2023-07-25T03:40:48.507Z,2.00
2023-07-25T03:45:56.559Z,2.20
2023-07-25T03:51:02.044Z,1.40
2023-07-25T03:56:08.694Z,2.10
2023-07-25T04:01:16.406Z,2.20
2023-07-25T04:06:22.350Z,1.90
2023-07-25T04:11:28.003Z,2.10
2023-07-25T04:16:36.259Z,2.45
2023-07-25T04:21:41.778Z,2.45
2023-07-25T04:26:47.181Z,1.93
2023-07-25T04:31:56.400Z,2.15
2023-07-25T04:37:01.956Z,2.20
2023-07-25T04:42:08.190Z,2.40
2023-07-25T04:47:16.270Z,2.93
2023-07-25T04:52:21.693Z,2.17
2023-07-25T04:57:27.264Z,2.50
2023-07-25T05:02:35.571Z,2.03
2023-07-25T05:07:41.101Z,2.63
2023-07-25T05:12:46.546Z,2.50
2023-07-25T05:17:54.666Z,2.20
2023-07-25T05:23:00.379Z,2.00
2023-07-25T05:28:05.839Z,2.65
2023-07-25T05:33:14.092Z,2.50
2023-07-25T05:38:19.756Z,2.40
2023-07-25T05:43:25.206Z,2.30
2023-07-25T05:48:33.200Z,2.30
2023-07-25T05:53:38.813Z,2.90
2023-07-25T05:58:44.987Z,1.90
2023-07-25T06:03:53.038Z,2.15
2023-07-25T06:08:58.901Z,1.90
2023-07-25T06:14:06.501Z,1.73
2023-07-25T06:19:17.167Z,1.80
2023-07-25T06:24:23.599Z,2.67
2023-07-25T06:29:29.107Z,2.00
2023-07-25T06:34:37.123Z,1.77
2023-07-25T06:39:42.610Z,1.65
2023-07-25T06:44:48.113Z,1.67
2023-07-25T06:49:56.324Z,1.52
2023-07-25T06:55:02.021Z,1.30
2023-07-25T07:00:09.552Z,1.57
2023-07-25T07:05:29.548Z,1.60
2023-07-25T07:10:36.672Z,1.35
2023-07-25T07:15:42.086Z,1.97
2023-07-25T07:20:53.565Z,2.03
2023-07-25T07:25:59.339Z,2.92
2023-07-25T07:31:06.478Z,2.90
2023-07-25T07:36:14.615Z,3.13
2023-07-25T07:41:20.093Z,3.85
2023-07-25T07:46:25.507Z,2.80
2023-07-25T07:51:34.112Z,2.47
2023-07-25T07:56:40.006Z,2.33
2023-07-25T08:01:45.408Z,1.80
2023-07-25T08:06:53.711Z,1.37
2023-07-25T08:11:59.950Z,1.63
2023-07-25T08:17:06.144Z,1.58
2023-07-25T08:22:14.281Z,1.30
2023-07-25T08:27:19.990Z,1.43
2023-07-25T08:32:27.046Z,1.33
2023-07-25T08:37:35.274Z,1.50
2023-07-25T08:42:45.102Z,2.23
2023-07-25T08:47:53.877Z,2.10
2023-07-25T08:53:04.887Z,2.00
2023-07-25T08:58:10.680Z,2.03
2023-07-25T09:03:16.442Z,2.03
2023-07-25T09:08:24.549Z,2.30
2023-07-25T09:13:30.093Z,2.35
2023-07-25T09:18:35.468Z,2.47
2023-07-25T09:23:43.528Z,3.83
2023-07-25T09:28:52.614Z,3.55
2023-07-25T09:33:59.331Z,3.17
2023-07-25T09:39:07.891Z,2.85
2023-07-25T09:44:13.544Z,2.97
2023-07-25T09:49:26.598Z,3.77
2023-07-25T09:54:34.800Z,3.43
2023-07-25T09:59:41.005Z,3.30
2023-07-25T10:04:47.098Z,3.10
2023-07-25T10:09:56.212Z,2.23
2023-07-25T10:15:01.925Z,2.13
2023-07-25T10:20:12.356Z,2.30
2023-07-25T10:25:25.205Z,1.83
2023-07-25T10:30:32.800Z,1.40
2023-07-25T10:35:54.271Z,1.80
2023-07-25T10:41:03.926Z,1.60
2023-07-25T10:46:10.284Z,2.70
2023-07-25T10:51:16.935Z,2.47
2023-07-25T10:56:24.448Z,1.90
2023-07-25T11:01:48.209Z,1.80
2023-07-25T11:06:54.765Z,2.17
2023-07-25T11:12:02.869Z,2.53
2023-07-25T11:17:08.786Z,2.40
2023-07-25T11:22:15.649Z,2.28
2023-07-25T11:27:23.672Z,2.30
2023-07-25T11:32:31.999Z,2.10
2023-07-25T11:37:37.512Z,2.00
2023-07-25T11:42:47.240Z,2.00
2023-07-25T11:47:54.785Z,2.63
2023-07-25T11:53:00.593Z,2.10
2023-07-25T11:58:09.490Z,2.15
2023-07-25T12:03:21.889Z,1.55
2023-07-25T12:08:34.974Z,1.90
2023-07-25T12:13:50.728Z,1.70
2023-07-25T12:18:57.814Z,1.70
2023-07-25T12:24:05.336Z,1.93
2023-07-25T12:29:16.832Z,1.90
2023-07-25T12:34:22.902Z,2.00
2023-07-25T12:39:28.456Z,1.48
2023-07-25T12:44:36.468Z,1.63
2023-07-25T12:49:41.963Z,1.92
2023-07-25T12:54:47.473Z,1.83
2023-07-25T12:59:56.454Z,1.40
2023-07-25T13:05:02.044Z,1.25
2023-07-25T13:10:08.674Z,1.80
2023-07-25T13:15:17.433Z,2.03
2023-07-25T13:20:23.776Z,2.13
2023-07-25T13:25:29.203Z,1.40
2023-07-25T13:30:37.200Z,1.60
2023-07-25T13:35:42.664Z,1.43
2023-07-25T13:40:48.613Z,1.50
2023-07-25T13:45:56.840Z,1.10
2023-07-25T13:51:02.362Z,1.80
2023-07-25T13:56:08.070Z,1.52
2023-07-25T14:01:16.835Z,1.38
2023-07-25T14:06:22.271Z,1.80
2023-07-25T14:11:30.029Z,1.50
2023-07-25T14:16:38.184Z,1.45
2023-07-25T14:21:43.662Z,1.80
2023-07-25T14:26:49.095Z,1.40
2023-07-25T14:31:59.545Z,2.08
2023-07-25T14:37:05.026Z,2.03
2023-07-25T14:42:10.542Z,1.77
2023-07-25T14:47:18.989Z,2.10
2023-07-25T14:52:24.524Z,1.65
2023-07-25T14:57:31.778Z,1.77
2023-07-25T15:02:40.601Z,1.90
2023-07-25T15:07:46.294Z,1.73
2023-07-25T15:12:51.766Z,1.50
2023-07-25T15:18:00.446Z,1.87
2023-07-25T15:23:06.001Z,1.90
2023-07-25T15:28:11.619Z,1.73
2023-07-25T15:33:19.665Z,2.10
2023-07-25T15:38:25.096Z,1.73
2023-07-25T15:43:30.468Z,1.67
2023-07-25T15:48:38.593Z,1.73
2023-07-25T15:53:44.045Z,1.57
2023-07-25T15:58:50.400Z,1.65
2023-07-25T16:09:05.890Z,1.00
2023-07-25T16:14:11.334Z,1.08
2023-07-25T16:19:19.348Z,0.80
2023-07-25T16:24:24.870Z,0.60
2023-07-25T16:29:30.364Z,0.75
2023-07-25T16:34:39.290Z,0.52
2023-07-25T16:39:45.052Z,0.83
2023-07-25T16:44:50.526Z,0.87
2023-07-25T16:49:58.580Z,0.60
2023-07-25T16:55:04.823Z,0.40
2023-07-25T17:00:11.606Z,0.80
2023-07-25T17:05:19.757Z,0.77
2023-07-25T17:10:25.317Z,0.60
2023-07-25T17:15:30.734Z,0.70
2023-07-25T17:20:39.008Z,0.57
2023-07-25T17:25:45.957Z,0.40
2023-07-25T17:30:51.449Z,0.70
2023-07-25T17:35:58.920Z,0.63
2023-07-25T17:41:05.074Z,0.52
2023-07-25T17:46:10.631Z,0.43
2023-07-25T17:51:18.806Z,0.47
2023-07-25T17:56:24.214Z,0.50
2023-07-25T18:01:29.645Z,0.80
2023-07-25T18:06:37.753Z,0.90
2023-07-25T18:11:43.380Z,0.70
2023-07-25T18:16:48.858Z,0.70
2023-07-25T18:21:56.863Z,0.63
2023-07-25T18:27:02.382Z,0.40
2023-07-25T18:32:08.479Z,0.50
2023-07-25T18:37:16.587Z,0.43
2023-07-25T18:42:22.304Z,0.40
2023-07-25T18:47:34.661Z,0.43
2023-07-25T18:52:43.796Z,0.40
2023-07-25T18:57:49.447Z,0.50
2023-07-25T19:02:54.922Z,0.60
2023-07-25T19:08:03.037Z,0.50
2023-07-25T19:13:08.389Z,0.40
2023-07-25T19:18:14.120Z,0.40
2023-07-25T19:23:26.787Z,0.50
2023-07-25T19:28:33.069Z,0.50
2023-07-25T19:33:38.695Z,0.47
2023-07-25T19:38:47.919Z,0.40
2023-07-25T19:43:54.137Z,0.38
2023-07-25T19:48:59.533Z,0.40
2023-07-25T19:54:07.956Z,0.50
2023-07-25T19:59:13.409Z,0.60
2023-07-25T20:04:18.849Z,0.50
2023-07-25T20:09:27.341Z,0.50
2023-07-25T20:14:32.718Z,0.50
2023-07-25T20:19:38.256Z,0.50
2023-07-25T20:24:46.375Z,0.50
2023-07-25T20:29:54.745Z,0.60
2023-07-25T20:35:00.214Z,0.60
2023-07-25T20:40:10.214Z,0.47
2023-07-25T20:45:16.232Z,0.60
2023-07-25T20:50:21.628Z,0.88
2023-07-25T20:55:30.417Z,0.77
2023-07-25T21:00:35.869Z,0.50
2023-07-25T21:05:41.394Z,0.70
2023-07-25T21:10:50.302Z,0.52
2023-07-25T21:15:56.092Z,0.57
2023-07-25T21:21:02.726Z,0.80
2023-07-25T21:26:10.903Z,0.50
2023-07-25T21:31:16.304Z,0.57
2023-07-25T21:36:22.079Z,0.63
2023-07-25T21:41:30.057Z,0.98
2023-07-25T21:46:37.321Z,0.83
2023-07-25T21:51:44.438Z,0.73
2023-07-25T21:56:52.474Z,0.77
2023-07-25T22:01:58.020Z,1.00
2023-07-25T22:07:04.139Z,0.97
2023-07-25T22:12:13.250Z,1.00
2023-07-25T22:17:18.894Z,1.08
2023-07-25T22:22:24.610Z,0.90
2023-07-25T22:27:32.651Z,0.88
2023-07-25T22:32:38.339Z,1.02
2023-07-25T22:37:43.811Z,1.00
2023-07-25T22:42:52.071Z,0.80
2023-07-25T22:47:57.640Z,0.85
2023-07-25T22:53:03.103Z,1.05
2023-07-25T22:58:11.101Z,0.97
2023-07-25T23:03:16.713Z,1.00
2023-07-25T23:08:22.268Z,0.98
2023-07-25T23:13:30.676Z,1.10
2023-07-25T23:18:36.587Z,1.05
2023-07-25T23:23:41.995Z,0.77
2023-07-25T23:28:49.994Z,1.30
2023-07-25T23:33:55.454Z,1.00
2023-07-25T23:39:00.892Z,1.10
2023-07-25T23:44:10.413Z,1.00
2023-07-25T23:49:16.102Z,1.23
2023-07-25T23:54:21.808Z,0.98
2023-07-25T23:59:29.895Z,1.10
